Time;durP1;ratioP1;P1;durP2;ratioP2;P2;SDS_P1;SDS_P2;PMS_P1;PMS_P2;Temp;Humidity;BMP_temperature;BMP_pressure;BME280_temperature;BME280_humidity;BME280_pressure;Samples;Min_cycle;Max_cycle;Signal;HPM_P1;HPM_P2
2023/10/20 00:00:45;;;;;;;;;;;;;;;;;;2079248;28;19948;-80
2023/10/20 00:02:04;;;;;;;;;;;;;;;;;;2080912;28;19909;-80
2023/10/20 00:03:23;;;;;;;;;;;;;;;;;;2078103;28;19905;-80
2023/10/20 00:04:42;;;;;;;;;;;;;;;;;;2077867;28;19909;-80
2023/10/20 00:06:01;;;;;;;;;;;;;;;;;;2077857;28;19916;-80
2023/10/20 00:07:21;;;;;;;;;;;;;;;;;;2078716;28;19905;-80
2023/10/20 00:08:39;;;;;;;;;;;;;;;;;;2079842;28;19909;-80
2023/10/20 00:09:59;;;;;;;;;;;;;;;;;;2078443;28;19905;-80
2023/10/20 00:11:18;;;;;;;;;;;;;;;;;;2077153;28;19905;-80
2023/10/20 00:12:37;;;;;;;;;;;;;;;;;;2075853;28;20358;-81
2023/10/20 00:13:56;;;;;;;;;;;;;;;;;;2077558;28;19909;-80
2023/10/20 00:15:14;;;;;;;;;;;;;;;;;;2076804;28;19953;-80
2023/10/20 00:16:33;;;;;;;;;;;;;;;;;;2077637;28;19909;-80
2023/10/20 00:17:52;;;;;;;;;;;;;;;;;;2070963;28;19910;-80
2023/10/20 00:19:11;;;;;;;;;;;;;;;;;;2073784;28;19913;-80
2023/10/20 00:20:30;;;;;;;;;;;;;;;;;;2072238;28;19913;-80
2023/10/20 00:21:49;;;;;;;;;;;;;;;;;;2077863;28;20536;-80
2023/10/20 00:23:08;;;;;;;;;;;;;;;;;;2074912;28;19918;-80
2023/10/20 00:24:27;;;;;;;;;;;;;;;;;;2073126;28;19905;-80
2023/10/20 00:25:46;;;;;;;;;;;;;;;;;;2077904;28;20000;-80
2023/10/20 00:27:05;;;;;;;;;;;;;;;;;;2076359;28;19948;-80
2023/10/20 00:28:24;;;;;;;;;;;;;;;;;;2073915;28;19905;-80
2023/10/20 00:29:43;;;;;;;;;;;;;;;;;;2077708;28;19909;-81
2023/10/20 00:31:02;;;;;;;;;;;;;;;;;;2073565;28;19912;-80
2023/10/20 00:32:20;;;;;;;;;;;;;;;;;;2075379;28;19992;-81
2023/10/20 00:33:39;;;;;;;;;;;;;;;;;;2075765;28;20278;-80
2023/10/20 00:34:58;;;;;;;;;;;;;;;;;;2073472;28;19905;-80
2023/10/20 00:36:17;;;;;;;;;;;;;;;;;;2073487;28;20940;-80
2023/10/20 00:37:36;;;;;;;;;;;;;;;;;;2073734;28;20011;-81
2023/10/20 00:38:55;;;;;;;;;;;;;;;;;;2083779;28;19976;-80
2023/10/20 00:40:14;;;;;;;;;;;;;;;;;;2072487;28;20008;-81
2023/10/20 00:41:35;;;;;;;;;;;;;;;;;;2079669;28;19905;-80
2023/10/20 00:42:54;;;;;;;;;;;;;;;;;;2079567;28;19905;-81
2023/10/20 00:44:14;;;;;;;;;;;;;;;;;;2081213;28;20261;-81
2023/10/20 00:45:34;;;;;;;;;;;;;;;;;;2075101;28;19909;-80
2023/10/20 00:46:53;;;;;;;;;;;;;;;;;;2078476;28;19960;-80
2023/10/20 00:48:12;;;;;;;;;;;;;;;;;;2072314;28;19905;-80
2023/10/20 00:49:32;;;;;;;;;;;;;;;;;;2078174;28;19906;-80
2023/10/20 00:50:50;;;;;;;;;;;;;;;;;;2074953;28;19913;-80
2023/10/20 00:52:09;;;;;;;;;;;;;;;;;;2074431;28;21035;-80
2023/10/20 00:53:28;;;;;;;;;;;;;;;;;;2073780;28;19906;-80
2023/10/20 00:54:47;;;;;;;;;;;;;;;;;;2074319;28;20382;-80
2023/10/20 00:56:06;;;;;;;;;;;;;;;;;;2068679;28;19909;-80
2023/10/20 00:57:26;;;;;;;;;;;;;;;;;;2076101;28;19937;-80
2023/10/20 00:58:47;;;;;;;;;;;;;;;;;;2073250;28;19913;-80
2023/10/20 01:00:09;;;;;;;;;;;;;;;;;;2075628;28;19963;-80
2023/10/20 01:01:28;;;;;;;;;;;;;;;;;;2074624;28;20326;-81
2023/10/20 01:02:47;;;;;;;;;;;;;;;;;;2072686;28;19914;-81
2023/10/20 01:04:05;;;;;;;;;;;;;;;;;;2073470;28;19913;-81
2023/10/20 01:05:24;;;;;;;;;;;;;;;;;;2078984;28;19913;-80
2023/10/20 01:06:43;;;;;;;;;;;;;;;;;;2075543;28;19961;-81
2023/10/20 01:08:02;;;;;;;;;;;;;;;;;;2074383;28;19980;-81
2023/10/20 01:09:21;;;;;;;;;;;;;;;;;;2078351;28;19909;-80
2023/10/20 01:10:40;;;;;;;;;;;;;;;;;;2075398;28;19944;-80
2023/10/20 01:11:58;;;;;;;;;;;;;;;;;;2073960;28;19917;-80
2023/10/20 01:13:17;;;;;;;;;;;;;;;;;;2075707;28;19910;-80
2023/10/20 01:14:36;;;;;;;;;;;;;;;;;;2076625;28;19909;-81
2023/10/20 01:15:55;;;;;;;;;;;;;;;;;;2078464;28;20019;-81
2023/10/20 01:17:13;;;;;;;;;;;;;;;;;;2073004;28;19914;-80
2023/10/20 01:18:32;;;;;;;;;;;;;;;;;;2073919;28;20305;-81
2023/10/20 01:19:51;;;;;;;;;;;;;;;;;;2074947;28;19909;-81
2023/10/20 01:21:10;;;;;;;;;;;;;;;;;;2077242;28;19905;-80
2023/10/20 01:22:30;;;;;;;;;;;;;;;;;;2074049;28;19932;-80
2023/10/20 01:23:49;;;;;;;;;;;;;;;;;;2077922;28;20409;-82
2023/10/20 01:25:08;;;;;;;;;;;;;;;;;;2074835;28;19905;-80
2023/10/20 01:26:29;;;;;;;;;;;;;;;;;;2078483;28;19924;-82
2023/10/20 01:27:48;;;;;;;;;;;;;;;;;;2082216;28;19917;-81
2023/10/20 01:29:11;;;;;;;;;;;;;;;;;;2084078;28;19904;-81
2023/10/20 01:30:30;;;;;;;;;;;;;;;;;;2075349;28;19960;-81
2023/10/20 01:31:49;;;;;;;;;;;;;;;;;;2075320;28;19905;-81
2023/10/20 01:33:08;;;;;;;;;;;;;;;;;;2079244;28;19909;-81
2023/10/20 01:34:28;;;;;;;;;;;;;;;;;;2070680;28;19956;-80
2023/10/20 01:35:47;;;;;;;;;;;;;;;;;;2078540;28;19909;-80
2023/10/20 01:37:10;;;;;;;;;;;;;;;;;;2075888;28;20377;-80
2023/10/20 01:38:29;;;;;;;;;;;;;;;;;;2072755;28;19905;-80
2023/10/20 01:39:48;;;;;;;;;;;;;;;;;;2072164;28;19956;-81
2023/10/20 01:41:07;;;;;;;;;;;;;;;;;;2079348;28;19967;-80
2023/10/20 01:42:26;;;;;;;;;;;;;;;;;;2076404;28;20290;-80
2023/10/20 01:43:44;;;;;;;;;;;;;;;;;;2075814;28;19921;-80
2023/10/20 01:45:04;;;;;;;;;;;;;;;;;;2078048;28;20283;-80
2023/10/20 01:46:23;;;;;;;;;;;;;;;;;;2077174;28;19905;-81
2023/10/20 01:47:42;;;;;;;;;;;;;;;;;;2077989;28;19991;-80
2023/10/20 01:49:00;;;;;;;;;;;;;;;;;;2076874;28;19905;-81
2023/10/20 01:50:20;;;;;;;;;;;;;;;;;;2075805;28;19987;-80
2023/10/20 01:51:39;;;;;;;;;;;;;;;;;;2078416;28;20286;-80
2023/10/20 01:52:58;;;;;;;;;;;;;;;;;;2076346;28;19913;-80
2023/10/20 01:54:17;;;;;;;;;;;;;;;;;;2077647;28;20660;-82
2023/10/20 01:55:39;;;;;;;;;;;;;;;;;;2081950;28;19912;-80
2023/10/20 01:56:58;;;;;;;;;;;;;;;;;;2081667;28;20406;-80
2023/10/20 01:58:17;;;;;;;;;;;;;;;;;;2076852;28;20001;-80
2023/10/20 01:59:36;;;;;;;;;;;;;;;;;;2076671;28;19956;-80
2023/10/20 02:00:55;;;;;;;;;;;;;;;;;;2068573;28;19913;-80
2023/10/20 02:02:15;;;;;;;;;;;;;;;;;;2076256;28;20355;-81
2023/10/20 02:03:33;;;;;;;;;;;;;;;;;;2074583;28;19905;-81
2023/10/20 02:04:52;;;;;;;;;;;;;;;;;;2074601;28;20358;-79
2023/10/20 02:06:11;;;;;;;;;;;;;;;;;;2077745;28;19917;-80
2023/10/20 02:07:30;;;;;;;;;;;;;;;;;;2082777;28;19905;-81
2023/10/20 02:08:49;;;;;;;;;;;;;;;;;;2078475;28;19940;-80
2023/10/20 02:10:08;;;;;;;;;;;;;;;;;;2073930;28;20529;-81
2023/10/20 02:11:27;;;;;;;;;;;;;;;;;;2077537;28;19913;-80
2023/10/20 02:12:46;;;;;;;;;;;;;;;;;;2075294;28;20289;-79
2023/10/20 02:14:05;;;;;;;;;;;;;;;;;;2075969;28;19910;-80
2023/10/20 02:15:24;;;;;;;;;;;;;;;;;;2074335;28;19917;-80
2023/10/20 02:16:42;;;;;;;;;;;;;;;;;;2072836;28;19905;-80
2023/10/20 02:18:01;;;;;;;;;;;;;;;;;;2079503;28;19941;-81
2023/10/20 02:19:20;;;;;;;;;;;;;;;;;;2081306;28;19909;-80
2023/10/20 02:20:39;;;;;;;;;;;;;;;;;;2080610;28;19905;-81
2023/10/20 02:22:01;;;;;;;;;;;;;;;;;;2070683;28;19910;-80
2023/10/20 02:23:20;;;;;;;;;;;;;;;;;;2075745;28;19956;-81
2023/10/20 02:24:39;;;;;;;;;;;;;;;;;;2079207;28;19952;-80
2023/10/20 02:25:58;;;;;;;;;;;;;;;;;;2080408;28;19933;-80
2023/10/20 02:27:17;;;;;;;;;;;;;;;;;;2081915;28;19942;-82
2023/10/20 02:28:35;;;;;;;;;;;;;;;;;;2076229;28;20455;-82
2023/10/20 02:29:54;;;;;;;;;;;;;;;;;;2080031;28;20098;-81
2023/10/20 02:31:13;;;;;;;;;;;;;;;;;;2075454;28;19906;-82
2023/10/20 02:32:32;;;;;;;;;;;;;;;;;;2075750;28;20325;-82
2023/10/20 02:33:50;;;;;;;;;;;;;;;;;;2074242;28;20000;-81
2023/10/20 02:35:09;;;;;;;;;;;;;;;;;;2079282;28;19999;-81
2023/10/20 02:36:28;;;;;;;;;;;;;;;;;;2081045;28;19975;-81
2023/10/20 02:37:47;;;;;;;;;;;;;;;;;;2075233;28;19909;-81
2023/10/20 02:39:06;;;;;;;;;;;;;;;;;;2075922;28;19909;-80
2023/10/20 02:40:25;;;;;;;;;;;;;;;;;;2078137;28;19909;-81
2023/10/20 02:41:44;;;;;;;;;;;;;;;;;;2073642;28;20374;-81
2023/10/20 02:43:03;;;;;;;;;;;;;;;;;;2072786;28;20915;-81
2023/10/20 02:44:22;;;;;;;;;;;;;;;;;;2077753;28;19909;-81
2023/10/20 02:45:41;;;;;;;;;;;;;;;;;;2075509;28;19905;-81
2023/10/20 02:46:59;;;;;;;;;;;;;;;;;;2075633;28;19909;-80
2023/10/20 02:48:18;;;;;;;;;;;;;;;;;;2079373;28;19956;-81
2023/10/20 02:49:37;;;;;;;;;;;;;;;;;;2082818;28;20265;-80
2023/10/20 02:50:57;;;;;;;;;;;;;;;;;;2080975;28;20333;-81
2023/10/20 02:52:16;;;;;;;;;;;;;;;;;;2076355;28;19953;-81
2023/10/20 02:53:34;;;;;;;;;;;;;;;;;;2076595;28;19917;-81
2023/10/20 02:54:53;;;;;;;;;;;;;;;;;;2077018;28;19914;-81
2023/10/20 02:56:12;;;;;;;;;;;;;;;;;;2079684;28;19905;-82
2023/10/20 02:57:31;;;;;;;;;;;;;;;;;;2087946;28;19901;-82
2023/10/20 02:58:50;;;;;;;;;;;;;;;;;;2086047;28;19977;-82
2023/10/20 03:00:15;;;;;;;;;;;;;;;;;;2084502;28;19982;-82
2023/10/20 03:01:34;;;;;;;;;;;;;;;;;;2085557;28;19909;-82
2023/10/20 03:02:53;;;;;;;;;;;;;;;;;;2086796;28;20030;-82
2023/10/20 03:04:12;;;;;;;;;;;;;;;;;;2083187;28;19909;-81
2023/10/20 03:05:31;;;;;;;;;;;;;;;;;;2087401;28;19927;-82
2023/10/20 03:06:50;;;;;;;;;;;;;;;;;;2084944;28;19908;-82
2023/10/20 03:08:08;;;;;;;;;;;;;;;;;;2084439;28;19905;-81
2023/10/20 03:09:27;;;;;;;;;;;;;;;;;;2082651;28;19932;-81
2023/10/20 03:10:47;;;;;;;;;;;;;;;;;;2083076;28;19913;-81
2023/10/20 03:12:05;;;;;;;;;;;;;;;;;;2082092;28;19913;-82
2023/10/20 03:13:25;;;;;;;;;;;;;;;;;;2077962;28;19944;-82
2023/10/20 03:14:44;;;;;;;;;;;;;;;;;;2075753;28;20371;-82
2023/10/20 03:16:03;;;;;;;;;;;;;;;;;;2075144;28;20333;-82
2023/10/20 03:17:22;;;;;;;;;;;;;;;;;;2074041;28;19999;-82
2023/10/20 03:18:40;;;;;;;;;;;;;;;;;;2076947;28;19906;-82
2023/10/20 03:20:00;;;;;;;;;;;;;;;;;;2075042;28;19909;-82
2023/10/20 03:21:21;;;;;;;;;;;;;;;;;;2075129;28;19909;-80
2023/10/20 03:22:39;;;;;;;;;;;;;;;;;;2075250;28;19917;-80
2023/10/20 03:23:58;;;;;;;;;;;;;;;;;;2073899;28;19913;-81
2023/10/20 03:25:18;;;;;;;;;;;;;;;;;;2074441;28;19944;-81
2023/10/20 03:26:36;;;;;;;;;;;;;;;;;;2075327;28;19905;-81
2023/10/20 03:27:55;;;;;;;;;;;;;;;;;;2081009;28;20378;-81
2023/10/20 03:29:14;;;;;;;;;;;;;;;;;;2083379;28;20068;-80
2023/10/20 03:30:33;;;;;;;;;;;;;;;;;;2073678;28;19913;-81
2023/10/20 03:31:53;;;;;;;;;;;;;;;;;;2075266;28;20259;-81
2023/10/20 03:33:12;;;;;;;;;;;;;;;;;;2074992;28;20018;-81
2023/10/20 03:34:31;;;;;;;;;;;;;;;;;;2079633;28;20354;-80
2023/10/20 03:35:50;;;;;;;;;;;;;;;;;;2074066;28;19913;-80
2023/10/20 03:37:13;;;;;;;;;;;;;;;;;;2076726;28;19905;-81
2023/10/20 03:38:32;;;;;;;;;;;;;;;;;;2077924;28;19956;-80
2023/10/20 03:39:51;;;;;;;;;;;;;;;;;;2074555;28;19911;-81
2023/10/20 03:41:10;;;;;;;;;;;;;;;;;;2078932;28;19904;-81
2023/10/20 03:42:30;;;;;;;;;;;;;;;;;;2074933;28;19905;-81
2023/10/20 03:43:50;;;;;;;;;;;;;;;;;;2077042;28;19905;-82
2023/10/20 03:45:10;;;;;;;;;;;;;;;;;;2076316;28;19913;-82
2023/10/20 03:46:30;;;;;;;;;;;;;;;;;;2071854;28;20359;-81
2023/10/20 03:47:51;;;;;;;;;;;;;;;;;;2075612;28;19914;-81
2023/10/20 03:49:10;;;;;;;;;;;;;;;;;;2075797;28;20371;-82
2023/10/20 03:50:33;;;;;;;;;;;;;;;;;;2075790;28;19909;-82
2023/10/20 03:51:53;;;;;;;;;;;;;;;;;;2079228;28;20355;-83
2023/10/20 03:53:18;;;;;;;;;;;;;;;;;;2076033;28;19915;-82
2023/10/20 03:54:37;;;;;;;;;;;;;;;;;;2075427;28;19909;-82
2023/10/20 03:55:55;;;;;;;;;;;;;;;;;;2073811;28;20007;-81
2023/10/20 03:57:15;;;;;;;;;;;;;;;;;;2079830;28;19905;-81
2023/10/20 03:58:36;;;;;;;;;;;;;;;;;;2079845;28;19905;-82
2023/10/20 03:59:54;;;;;;;;;;;;;;;;;;2074185;28;19910;-82
2023/10/20 04:01:13;;;;;;;;;;;;;;;;;;2075569;28;19913;-82
2023/10/20 04:02:32;;;;;;;;;;;;;;;;;;2077574;28;19905;-82
2023/10/20 04:03:51;;;;;;;;;;;;;;;;;;2075253;28;19905;-82
2023/10/20 04:05:10;;;;;;;;;;;;;;;;;;2076398;28;19909;-81
2023/10/20 04:06:28;;;;;;;;;;;;;;;;;;2081099;28;19905;-80
2023/10/20 04:07:47;;;;;;;;;;;;;;;;;;2076907;28;19906;-80
2023/10/20 04:09:09;;;;;;;;;;;;;;;;;;2078800;28;20397;-81
2023/10/20 04:10:28;;;;;;;;;;;;;;;;;;2074670;28;20460;-82
2023/10/20 04:11:48;;;;;;;;;;;;;;;;;;2077310;28;19982;-82
2023/10/20 04:13:07;;;;;;;;;;;;;;;;;;2075430;28;19905;-81
2023/10/20 04:14:26;;;;;;;;;;;;;;;;;;2074554;28;19905;-81
2023/10/20 04:15:45;;;;;;;;;;;;;;;;;;2073689;28;19913;-82
2023/10/20 04:17:05;;;;;;;;;;;;;;;;;;2073947;28;19905;-82
2023/10/20 04:18:24;;;;;;;;;;;;;;;;;;2076216;28;19905;-81
2023/10/20 04:19:42;;;;;;;;;;;;;;;;;;2078446;28;20359;-81
2023/10/20 04:21:03;;;;;;;;;;;;;;;;;;2070214;28;19909;-81
2023/10/20 04:22:23;;;;;;;;;;;;;;;;;;2076607;28;19937;-82
2023/10/20 04:23:43;;;;;;;;;;;;;;;;;;2081529;28;19909;-82
2023/10/20 04:25:02;;;;;;;;;;;;;;;;;;2073066;28;19909;-83
2023/10/20 04:26:21;;;;;;;;;;;;;;;;;;2072820;28;19905;-82
2023/10/20 04:27:51;;;;;;;;;;;;;;;;;;2076627;28;20336;-82
2023/10/20 04:45:16;;;;;;;;;;;;;;;;;;2080679;28;20385;-81
2023/10/20 04:51:19;;;;;;;;;;;;;;;;;;2083779;28;20357;-82
2023/10/20 04:54:23;;;;;;;;;;;;;;;;;;2061042;28;19907;-81
2023/10/20 04:59:05;;;;;;;;;;;;;;;;;;2079021;28;20030;-81
2023/10/20 05:04:28;;;;;;;;;;;;;;;;;;2082685;28;20266;-79
2023/10/20 05:05:57;;;;;;;;;;;;;;;;;;2081198;28;19916;-79
2023/10/20 05:07:18;;;;;;;;;;;;;;;;;;2076705;28;19945;-78
2023/10/20 05:08:37;;;;;;;;;;;;;;;;;;2079767;28;19944;-78
2023/10/20 05:09:56;;;;;;;;;;;;;;;;;;2082134;28;19913;-81
2023/10/20 05:11:15;;;;;;;;;;;;;;;;;;2080861;28;20290;-79
2023/10/20 05:12:34;;;;;;;;;;;;;;;;;;2085063;28;19904;-81
2023/10/20 05:13:53;;;;;;;;;;;;;;;;;;2081316;28;19905;-79
2023/10/20 05:15:12;;;;;;;;;;;;;;;;;;2072443;28;20634;-80
2023/10/20 05:16:33;;;;;;;;;;;;;;;;;;2079968;28;19913;-79
2023/10/20 05:17:52;;;;;;;;;;;;;;;;;;2074606;28;19905;-81
2023/10/20 05:19:12;;;;;;;;;;;;;;;;;;2083543;28;19948;-79
2023/10/20 05:20:31;;;;;;;;;;;;;;;;;;2075218;28;20441;-79
2023/10/20 05:21:51;;;;;;;;;;;;;;;;;;2077946;28;19913;-81
2023/10/20 05:23:14;;;;;;;;;;;;;;;;;;2072762;28;19905;-77
2023/10/20 05:24:33;;;;;;;;;;;;;;;;;;2068215;28;19964;-77
2023/10/20 05:25:52;;;;;;;;;;;;;;;;;;2068623;28;19917;-77
2023/10/20 05:27:12;;;;;;;;;;;;;;;;;;2077032;28;20382;-78
2023/10/20 05:28:31;;;;;;;;;;;;;;;;;;2072816;28;20363;-80
2023/10/20 05:29:49;;;;;;;;;;;;;;;;;;2069436;28;19996;-79
2023/10/20 05:31:08;;;;;;;;;;;;;;;;;;2068703;28;19913;-80
2023/10/20 05:32:27;;;;;;;;;;;;;;;;;;2068151;28;19953;-79
2023/10/20 05:33:45;;;;;;;;;;;;;;;;;;2067189;28;19913;-79
2023/10/20 05:35:04;;;;;;;;;;;;;;;;;;2067960;28;19909;-80
2023/10/20 05:36:23;;;;;;;;;;;;;;;;;;2076495;28;19913;-78
2023/10/20 05:37:42;;;;;;;;;;;;;;;;;;2074438;28;20378;-81
2023/10/20 05:39:01;;;;;;;;;;;;;;;;;;2072130;28;19909;-82
2023/10/20 05:40:19;;;;;;;;;;;;;;;;;;2070767;28;20633;-79
2023/10/20 05:41:38;;;;;;;;;;;;;;;;;;2072348;28;20597;-78
2023/10/20 05:42:57;;;;;;;;;;;;;;;;;;2072479;28;19992;-80
2023/10/20 05:44:21;;;;;;;;;;;;;;;;;;2072374;28;20349;-79
2023/10/20 05:45:40;;;;;;;;;;;;;;;;;;2072872;28;19917;-79
2023/10/20 05:46:59;;;;;;;;;;;;;;;;;;2073912;28;20269;-76
2023/10/20 05:48:18;;;;;;;;;;;;;;;;;;2074796;28;19906;-79
2023/10/20 05:49:37;;;;;;;;;;;;;;;;;;2071551;28;19909;-79
2023/10/20 05:50:57;;;;;;;;;;;;;;;;;;2070895;28;20356;-79
2023/10/20 05:52:16;;;;;;;;;;;;;;;;;;2070925;28;20007;-80
2023/10/20 05:53:35;;;;;;;;;;;;;;;;;;2076506;28;19908;-81
2023/10/20 05:54:54;;;;;;;;;;;;;;;;;;2080665;28;19909;-81
2023/10/20 05:56:13;;;;;;;;;;;;;;;;;;2071775;28;19933;-80
2023/10/20 05:57:32;;;;;;;;;;;;;;;;;;2072491;28;19906;-82
2023/10/20 05:58:51;;;;;;;;;;;;;;;;;;2072684;28;19957;-79
2023/10/20 06:00:09;;;;;;;;;;;;;;;;;;2072429;28;20285;-79
2023/10/20 06:01:28;;;;;;;;;;;;;;;;;;2072236;28;20290;-81
2023/10/20 06:02:47;;;;;;;;;;;;;;;;;;2071161;28;19905;-79
2023/10/20 06:04:08;;;;;;;;;;;;;;;;;;2072297;28;19921;-80
2023/10/20 06:05:26;;;;;;;;;;;;;;;;;;2068461;28;19922;-81
2023/10/20 06:06:45;;;;;;;;;;;;;;;;;;2073580;28;19909;-79
2023/10/20 06:08:05;;;;;;;;;;;;;;;;;;2078759;28;19905;-80
2023/10/20 06:09:25;;;;;;;;;;;;;;;;;;2071219;28;19917;-79
2023/10/20 06:10:44;;;;;;;;;;;;;;;;;;2072343;28;19905;-79
2023/10/20 06:12:06;;;;;;;;;;;;;;;;;;2072524;28;19905;-78
2023/10/20 06:13:25;;;;;;;;;;;;;;;;;;2072751;28;19945;-80
2023/10/20 06:14:44;;;;;;;;;;;;;;;;;;2070612;28;19909;-80
2023/10/20 06:16:08;;;;;;;;;;;;;;;;;;2072166;28;19909;-81
2023/10/20 06:17:27;;;;;;;;;;;;;;;;;;2071549;28;19905;-80
2023/10/20 06:18:46;;;;;;;;;;;;;;;;;;2072563;28;19913;-79
2023/10/20 06:20:06;;;;;;;;;;;;;;;;;;2070314;28;20371;-79
2023/10/20 06:21:25;;;;;;;;;;;;;;;;;;2074874;28;19909;-81
2023/10/20 06:22:44;;;;;;;;;;;;;;;;;;2071714;28;19926;-78
2023/10/20 06:24:03;;;;;;;;;;;;;;;;;;2069644;28;19910;-79
2023/10/20 06:25:22;;;;;;;;;;;;;;;;;;2069785;28;19913;-82
2023/10/20 06:26:41;;;;;;;;;;;;;;;;;;2071048;28;20266;-79
2023/10/20 06:28:00;;;;;;;;;;;;;;;;;;2073009;28;19909;-79
2023/10/20 06:30:46;;;;;;;;;;;;;;;;;;2071465;28;20355;-78
2023/10/20 06:32:19;;;;;;;;;;;;;;;;;;2071989;28;19987;-78
2023/10/20 06:33:38;;;;;;;;;;;;;;;;;;2072676;28;19949;-78
2023/10/20 06:35:00;;;;;;;;;;;;;;;;;;2071880;28;19913;-79
2023/10/20 06:36:25;;;;;;;;;;;;;;;;;;2078200;28;19921;-82
2023/10/20 06:37:52;;;;;;;;;;;;;;;;;;2088041;28;19905;-79
2023/10/20 06:39:13;;;;;;;;;;;;;;;;;;2083282;28;19940;-81
2023/10/20 06:40:32;;;;;;;;;;;;;;;;;;2079352;28;19913;-81
2023/10/20 06:41:51;;;;;;;;;;;;;;;;;;2077721;28;19913;-77
2023/10/20 06:43:10;;;;;;;;;;;;;;;;;;2077415;28;19909;-79
2023/10/20 06:44:29;;;;;;;;;;;;;;;;;;2077654;28;19905;-81
2023/10/20 06:45:48;;;;;;;;;;;;;;;;;;2076405;28;19906;-79
2023/10/20 06:47:07;;;;;;;;;;;;;;;;;;2073122;28;19914;-83
2023/10/20 06:48:26;;;;;;;;;;;;;;;;;;2078471;28;20093;-79
2023/10/20 06:49:45;;;;;;;;;;;;;;;;;;2072498;28;20405;-80
2023/10/20 06:51:04;;;;;;;;;;;;;;;;;;2077604;28;20362;-82
2023/10/20 06:52:23;;;;;;;;;;;;;;;;;;2072478;28;19913;-80
2023/10/20 06:53:41;;;;;;;;;;;;;;;;;;2071723;28;19917;-80
2023/10/20 06:55:00;;;;;;;;;;;;;;;;;;2072337;28;20039;-80
2023/10/20 06:56:19;;;;;;;;;;;;;;;;;;2072950;28;19909;-80
2023/10/20 06:57:38;;;;;;;;;;;;;;;;;;2072494;28;19913;-80
2023/10/20 06:58:57;;;;;;;;;;;;;;;;;;2071911;28;19913;-80
2023/10/20 07:00:17;;;;;;;;;;;;;;;;;;2072440;28;19910;-80
2023/10/20 07:01:36;;;;;;;;;;;;;;;;;;2073118;28;20274;-81
2023/10/20 07:02:55;;;;;;;;;;;;;;;;;;2069020;28;19905;-79
2023/10/20 07:04:14;;;;;;;;;;;;;;;;;;2073258;28;19905;-80
2023/10/20 07:05:32;;;;;;;;;;;;;;;;;;2073026;28;19909;-81
2023/10/20 07:06:51;;;;;;;;;;;;;;;;;;2072065;28;19905;-78
2023/10/20 07:08:13;;;;;;;;;;;;;;;;;;2073346;28;19905;-81
2023/10/20 07:09:32;;;;;;;;;;;;;;;;;;2067403;28;19905;-81
2023/10/20 07:10:51;;;;;;;;;;;;;;;;;;2071696;28;19917;-81
2023/10/20 07:12:09;;;;;;;;;;;;;;;;;;2078300;28;19905;-81
2023/10/20 07:13:28;;;;;;;;;;;;;;;;;;2074536;28;19909;-82
2023/10/20 07:14:47;;;;;;;;;;;;;;;;;;2072221;28;20319;-81
2023/10/20 07:16:06;;;;;;;;;;;;;;;;;;2071285;28;19917;-81
2023/10/20 07:17:25;;;;;;;;;;;;;;;;;;2071300;28;19992;-81
2023/10/20 07:18:43;;;;;;;;;;;;;;;;;;2071907;28;19992;-82
2023/10/20 07:20:04;;;;;;;;;;;;;;;;;;2071295;28;19905;-81
2023/10/20 07:21:24;;;;;;;;;;;;;;;;;;2071636;28;19913;-83
2023/10/20 07:22:43;;;;;;;;;;;;;;;;;;2073939;28;19917;-81
2023/10/20 07:24:03;;;;;;;;;;;;;;;;;;2077780;28;19909;-83
2023/10/20 07:25:22;;;;;;;;;;;;;;;;;;2075154;28;19914;-81
2023/10/20 07:26:42;;;;;;;;;;;;;;;;;;2076411;28;19905;-84
2023/10/20 07:28:00;;;;;;;;;;;;;;;;;;2078245;28;20378;-82
2023/10/20 07:29:19;;;;;;;;;;;;;;;;;;2070892;28;20371;-83
2023/10/20 07:30:38;;;;;;;;;;;;;;;;;;2072498;28;20386;-81
2023/10/20 07:31:56;;;;;;;;;;;;;;;;;;2074231;28;19941;-83
2023/10/20 07:33:18;;;;;;;;;;;;;;;;;;2078669;28;19952;-87
2023/10/20 07:34:37;;;;;;;;;;;;;;;;;;2075136;28;19905;-91
2023/10/20 07:35:56;;;;;;;;;;;;;;;;;;2071162;28;20823;-82
2023/10/20 07:37:18;;;;;;;;;;;;;;;;;;2072220;28;19906;-82
2023/10/20 07:38:38;;;;;;;;;;;;;;;;;;2074785;28;19956;-82
2023/10/20 07:39:57;;;;;;;;;;;;;;;;;;2075428;28;19960;-83
2023/10/20 07:41:17;;;;;;;;;;;;;;;;;;2078848;28;19913;-81
2023/10/20 07:42:35;;;;;;;;;;;;;;;;;;2074929;28;19906;-83
2023/10/20 07:43:54;;;;;;;;;;;;;;;;;;2068749;28;19910;-85
2023/10/20 07:45:13;;;;;;;;;;;;;;;;;;2068147;28;19909;-83
2023/10/20 07:46:32;;;;;;;;;;;;;;;;;;2079569;28;19913;-85
2023/10/20 07:47:51;;;;;;;;;;;;;;;;;;2073688;28;20390;-84
2023/10/20 07:49:11;;;;;;;;;;;;;;;;;;2078347;28;19908;-84
2023/10/20 07:50:30;;;;;;;;;;;;;;;;;;2074397;28;19936;-81
2023/10/20 07:51:49;;;;;;;;;;;;;;;;;;2073552;28;19913;-81
2023/10/20 07:53:08;;;;;;;;;;;;;;;;;;2077817;28;19904;-83
2023/10/20 07:54:27;;;;;;;;;;;;;;;;;;2073204;28;19906;-85
2023/10/20 07:55:46;;;;;;;;;;;;;;;;;;2073646;28;19964;-85
2023/10/20 07:57:05;;;;;;;;;;;;;;;;;;2073879;28;19909;-84
2023/10/20 07:58:23;;;;;;;;;;;;;;;;;;2073001;28;20223;-83
2023/10/20 07:59:42;;;;;;;;;;;;;;;;;;2073058;28;19956;-75
2023/10/20 08:01:03;;;;;;;;;;;;;;;;;;2075565;28;19918;-83
2023/10/20 08:02:24;;;;;;;;;;;;;;;;;;2068964;28;19913;-87
2023/10/20 08:03:47;;;;;;;;;;;;;;;;;;2079477;28;19913;-84
2023/10/20 08:05:08;;;;;;;;;;;;;;;;;;2072340;28;19905;-85
2023/10/20 08:06:28;;;;;;;;;;;;;;;;;;2069775;28;19905;-85
2023/10/20 08:07:48;;;;;;;;;;;;;;;;;;2072924;28;19913;-84
2023/10/20 08:09:11;;;;;;;;;;;;;;;;;;2074892;28;20364;-84
2023/10/20 08:10:30;;;;;;;;;;;;;;;;;;2081683;28;19904;-85
2023/10/20 08:11:49;;;;;;;;;;;;;;;;;;2076394;28;19940;-83
2023/10/20 08:13:09;;;;;;;;;;;;;;;;;;2075406;28;20302;-85
2023/10/20 08:14:28;;;;;;;;;;;;;;;;;;2075018;28;19905;-84
2023/10/20 08:15:47;;;;;;;;;;;;;;;;;;2069975;28;20024;-82
2023/10/20 08:17:07;;;;;;;;;;;;;;;;;;2072410;28;19996;-85
2023/10/20 08:18:28;;;;;;;;;;;;;;;;;;2071332;28;19913;-83
2023/10/20 08:19:46;;;;;;;;;;;;;;;;;;2076825;28;19913;-85
2023/10/20 08:21:07;;;;;;;;;;;;;;;;;;2073386;28;19913;-79
2023/10/20 08:22:25;;;;;;;;;;;;;;;;;;2076866;28;19912;-79
2023/10/20 08:23:44;;;;;;;;;;;;;;;;;;2073230;28;19909;-82
2023/10/20 08:25:03;;;;;;;;;;;;;;;;;;2079054;28;20336;-84
2023/10/20 08:26:22;;;;;;;;;;;;;;;;;;2075318;28;19909;-85
2023/10/20 08:27:41;;;;;;;;;;;;;;;;;;2073633;28;19909;-86
2023/10/20 08:29:06;;;;;;;;;;;;;;;;;;2080060;28;19909;-88
2023/10/20 08:30:25;;;;;;;;;;;;;;;;;;2073379;28;20290;-89
2023/10/20 08:31:44;;;;;;;;;;;;;;;;;;2072151;28;19905;-88
2023/10/20 08:33:05;;;;;;;;;;;;;;;;;;2070213;28;19937;-86
2023/10/20 08:34:24;;;;;;;;;;;;;;;;;;2078678;28;19909;-88
2023/10/20 08:35:46;;;;;;;;;;;;;;;;;;2072919;28;19917;-88
2023/10/20 08:37:07;;;;;;;;;;;;;;;;;;2075105;28;19909;-88
2023/10/20 08:38:38;;;;;;;;;;;;;;;;;;2080395;28;20404;-88
2023/10/20 08:39:58;;;;;;;;;;;;;;;;;;2082241;28;20157;-89
2023/10/20 08:43:04;;;;;;;;;;;;;;;;;;2081596;28;20008;-91
2023/10/20 08:46:05;;;;;;;;;;;;;;;;;;2082962;28;19905;-88
2023/10/20 08:47:27;;;;;;;;;;;;;;;;;;2077708;28;19940;-90
2023/10/20 08:48:48;;;;;;;;;;;;;;;;;;2079398;28;19909;-90
2023/10/20 08:50:07;;;;;;;;;;;;;;;;;;2080315;28;19917;-89
2023/10/20 08:51:30;;;;;;;;;;;;;;;;;;2080014;28;19909;-88
2023/10/20 08:52:49;;;;;;;;;;;;;;;;;;2071033;28;20330;-88
2023/10/20 08:54:08;;;;;;;;;;;;;;;;;;2073666;28;19940;-88
2023/10/20 08:55:27;;;;;;;;;;;;;;;;;;2078601;28;19912;-88
2023/10/20 08:56:46;;;;;;;;;;;;;;;;;;2076383;28;19945;-88
2023/10/20 08:58:08;;;;;;;;;;;;;;;;;;2082404;28;19905;-90
2023/10/20 08:59:32;;;;;;;;;;;;;;;;;;2076305;28;20279;-89
2023/10/20 09:00:54;;;;;;;;;;;;;;;;;;2071516;28;20448;-90
2023/10/20 09:02:13;;;;;;;;;;;;;;;;;;2075122;28;20382;-90
2023/10/20 09:03:34;;;;;;;;;;;;;;;;;;2070117;28;19906;-90
2023/10/20 09:04:53;;;;;;;;;;;;;;;;;;2076020;28;19983;-88
2023/10/20 09:06:14;;;;;;;;;;;;;;;;;;2081159;28;20378;-90
2023/10/20 09:07:51;;;;;;;;;;;;;;;;;;2082884;28;20346;-87
2023/10/20 09:09:10;;;;;;;;;;;;;;;;;;2075375;28;19976;-83
2023/10/20 09:10:32;;;;;;;;;;;;;;;;;;2072825;28;19906;-90
2023/10/20 09:11:54;;;;;;;;;;;;;;;;;;2074428;28;20343;-87
2023/10/20 09:13:13;;;;;;;;;;;;;;;;;;2077902;28;19909;-86
2023/10/20 09:14:34;;;;;;;;;;;;;;;;;;2075561;28;19909;-88
2023/10/20 09:16:07;;;;;;;;;;;;;;;;;;;;;
2023/10/20 09:19:47;;;;;;;;;;;;;;;;;;2080509;28;19905;-85
2023/10/20 09:20:47;;;;;;;;;;;;;;;;;;2083026;28;19992;-83
2023/10/20 09:22:06;;;;;;;;;;;;;;;;;;2073143;28;19961;-84
2023/10/20 09:23:24;;;;;;;;;;;;;;;;;;2080771;28;19992;-79
2023/10/20 09:24:45;;;;;;;;;;;;;;;;;;2076085;28;19917;-82
2023/10/20 09:26:04;;;;;;;;;;;;;;;;;;2075583;28;20316;-84
2023/10/20 09:27:30;;;;;;;;;;;;;;;;;;2077639;28;20470;-83
2023/10/20 09:28:50;;;;;;;;;;;;;;;;;;2080474;28;19909;-87
2023/10/20 09:30:17;;;;;;;;;;;;;;;;;;2084185;28;19905;-87
2023/10/20 09:31:36;;;;;;;;;;;;;;;;;;2076086;28;19960;-84
2023/10/20 09:32:57;;;;;;;;;;;;;;;;;;2071650;28;19909;-84
2023/10/20 09:34:16;;;;;;;;;;;;;;;;;;2074491;28;20378;-85
2023/10/20 09:35:39;;;;;;;;;;;;;;;;;;2074487;28;20013;-83
2023/10/20 09:37:01;;;;;;;;;;;;;;;;;;2082475;28;19905;-84
2023/10/20 09:38:19;;;;;;;;;;;;;;;;;;2075936;28;20367;-85
2023/10/20 09:39:46;;;;;;;;;;;;;;;;;;2076112;28;20505;-83
2023/10/20 09:41:05;;;;;;;;;;;;;;;;;;2077018;28;19905;-85